sensor_id;sensor_type;location;lat;lon;timestamp;temperature;humidity
11242;DHT22;5678;52.370;9.006;2022-07-29T00:02:14;15.90;99.90
11242;DHT22;5678;52.370;9.006;2022-07-29T00:04:42;15.90;99.90
11242;DHT22;5678;52.370;9.006;2022-07-29T00:07:10;15.90;99.90
11242;DHT22;5678;52.370;9.006;2022-07-29T00:09:39;16.20;99.90
11242;DHT22;5678;52.370;9.006;2022-07-29T00:12:20;15.90;99.90
11242;DHT22;5678;52.370;9.006;2022-07-29T00:14:53;16.00;99.90
11242;DHT22;5678;52.370;9.006;2022-07-29T00:17:21;16.00;99.90
11242;DHT22;5678;52.370;9.006;2022-07-29T00:19:49;16.00;99.90
11242;DHT22;5678;52.370;9.006;2022-07-29T00:22:18;16.20;99.90
11242;DHT22;5678;52.370;9.006;2022-07-29T00:24:47;16.00;99.90
11242;DHT22;5678;52.370;9.006;2022-07-29T00:27:16;16.10;99.90
11242;DHT22;5678;52.370;9.006;2022-07-29T00:29:46;16.10;99.90
11242;DHT22;5678;52.370;9.006;2022-07-29T00:32:13;16.10;99.90
11242;DHT22;5678;52.370;9.006;2022-07-29T00:34:41;16.20;99.90
11242;DHT22;5678;52.370;9.006;2022-07-29T00:37:26;16.10;99.90
11242;DHT22;5678;52.370;9.006;2022-07-29T00:39:55;16.10;99.90
11242;DHT22;5678;52.370;9.006;2022-07-29T00:42:23;16.20;99.90
11242;DHT22;5678;52.370;9.006;2022-07-29T00:44:52;16.20;99.90
11242;DHT22;5678;52.370;9.006;2022-07-29T00:47:20;16.10;99.90
11242;DHT22;5678;52.370;9.006;2022-07-29T00:49:48;16.20;99.90
11242;DHT22;5678;52.370;9.006;2022-07-29T00:52:16;16.20;99.90
11242;DHT22;5678;52.370;9.006;2022-07-29T00:54:44;16.10;99.90
11242;DHT22;5678;52.370;9.006;2022-07-29T00:57:12;16.20;99.90
11242;DHT22;5678;52.370;9.006;2022-07-29T00:59:41;16.20;99.90
11242;DHT22;5678;52.370;9.006;2022-07-29T01:02:10;16.20;99.90
11242;DHT22;5678;52.370;9.006;2022-07-29T01:04:38;16.20;99.90
11242;DHT22;5678;52.370;9.006;2022-07-29T01:07:07;16.10;99.90
11242;DHT22;5678;52.370;9.006;2022-07-29T01:09:37;16.10;99.90
11242;DHT22;5678;52.370;9.006;2022-07-29T01:12:14;16.10;99.90
11242;DHT22;5678;52.370;9.006;2022-07-29T01:14:43;16.00;99.90
11242;DHT22;5678;52.370;9.006;2022-07-29T01:17:18;16.00;99.90
11242;DHT22;5678;52.370;9.006;2022-07-29T01:19:52;16.00;99.90
11242;DHT22;5678;52.370;9.006;2022-07-29T01:22:28;16.00;99.90
11242;DHT22;5678;52.370;9.006;2022-07-29T01:25:30;15.90;99.90
11242;DHT22;5678;52.370;9.006;2022-07-29T01:28:31;15.90;99.90
11242;DHT22;5678;52.370;9.006;2022-07-29T01:31:02;15.90;99.90
11242;DHT22;5678;52.370;9.006;2022-07-29T01:33:35;15.80;99.90
11242;DHT22;5678;52.370;9.006;2022-07-29T01:36:23;15.80;99.90
11242;DHT22;5678;52.370;9.006;2022-07-29T01:38:57;15.80;99.90
11242;DHT22;5678;52.370;9.006;2022-07-29T01:41:28;15.80;99.90
11242;DHT22;5678;52.370;9.006;2022-07-29T01:44:02;15.80;99.90
11242;DHT22;5678;52.370;9.006;2022-07-29T01:46:37;15.80;99.90
11242;DHT22;5678;52.370;9.006;2022-07-29T01:49:10;15.90;99.90
11242;DHT22;5678;52.370;9.006;2022-07-29T01:51:43;15.70;99.90
11242;DHT22;5678;52.370;9.006;2022-07-29T01:54:16;15.70;99.90
11242;DHT22;5678;52.370;9.006;2022-07-29T01:56:47;15.70;99.90
11242;DHT22;5678;52.370;9.006;2022-07-29T01:59:18;15.70;99.90
11242;DHT22;5678;52.370;9.006;2022-07-29T02:01:47;15.70;99.90
11242;DHT22;5678;52.370;9.006;2022-07-29T02:04:20;15.70;99.90
11242;DHT22;5678;52.370;9.006;2022-07-29T02:06:58;15.70;99.90
11242;DHT22;5678;52.370;9.006;2022-07-29T02:09:28;15.70;99.90
11242;DHT22;5678;52.370;9.006;2022-07-29T02:11:57;15.60;99.90
11242;DHT22;5678;52.370;9.006;2022-07-29T02:14:31;15.60;99.90
11242;DHT22;5678;52.370;9.006;2022-07-29T02:17:02;15.60;99.90
11242;DHT22;5678;52.370;9.006;2022-07-29T02:19:32;15.60;99.90
11242;DHT22;5678;52.370;9.006;2022-07-29T02:22:01;15.60;99.90
11242;DHT22;5678;52.370;9.006;2022-07-29T02:24:30;15.50;99.90
11242;DHT22;5678;52.370;9.006;2022-07-29T02:26:59;15.50;99.90
11242;DHT22;5678;52.370;9.006;2022-07-29T02:29:30;15.50;99.90
11242;DHT22;5678;52.370;9.006;2022-07-29T02:32:01;15.50;99.90
11242;DHT22;5678;52.370;9.006;2022-07-29T02:34:30;15.50;99.90
11242;DHT22;5678;52.370;9.006;2022-07-29T02:36:59;15.60;99.90
11242;DHT22;5678;52.370;9.006;2022-07-29T02:39:28;15.50;99.90
11242;DHT22;5678;52.370;9.006;2022-07-29T02:42:01;15.50;99.90
11242;DHT22;5678;52.370;9.006;2022-07-29T02:44:32;15.50;99.90
11242;DHT22;5678;52.370;9.006;2022-07-29T02:47:07;15.50;99.90
11242;DHT22;5678;52.370;9.006;2022-07-29T02:49:38;15.40;99.90
11242;DHT22;5678;52.370;9.006;2022-07-29T02:52:09;15.50;99.90
11242;DHT22;5678;52.370;9.006;2022-07-29T02:54:41;15.40;99.90
11242;DHT22;5678;52.370;9.006;2022-07-29T02:57:14;15.40;99.90
11242;DHT22;5678;52.370;9.006;2022-07-29T02:59:50;15.40;99.90
11242;DHT22;5678;52.370;9.006;2022-07-29T03:02:20;15.50;99.90
11242;DHT22;5678;52.370;9.006;2022-07-29T03:04:49;15.70;99.90
11242;DHT22;5678;52.370;9.006;2022-07-29T03:07:18;15.40;99.90
11242;DHT22;5678;52.370;9.006;2022-07-29T03:09:49;15.40;99.90
11242;DHT22;5678;52.370;9.006;2022-07-29T03:12:17;15.40;99.90
11242;DHT22;5678;52.370;9.006;2022-07-29T03:14:45;16.50;99.90
11242;DHT22;5678;52.370;9.006;2022-07-29T03:17:15;15.40;99.90
11242;DHT22;5678;52.370;9.006;2022-07-29T03:19:43;15.60;99.90
11242;DHT22;5678;52.370;9.006;2022-07-29T03:22:12;15.60;99.90
11242;DHT22;5678;52.370;9.006;2022-07-29T03:24:39;15.40;99.90
11242;DHT22;5678;52.370;9.006;2022-07-29T03:27:07;15.40;99.90
11242;DHT22;5678;52.370;9.006;2022-07-29T03:29:35;15.40;99.90
11242;DHT22;5678;52.370;9.006;2022-07-29T03:32:05;15.40;99.90
11242;DHT22;5678;52.370;9.006;2022-07-29T03:34:36;15.40;99.90
11242;DHT22;5678;52.370;9.006;2022-07-29T03:37:05;15.40;99.90
11242;DHT22;5678;52.370;9.006;2022-07-29T03:39:36;15.30;99.90
11242;DHT22;5678;52.370;9.006;2022-07-29T03:42:07;15.40;99.90
11242;DHT22;5678;52.370;9.006;2022-07-29T03:44:36;15.30;99.90
11242;DHT22;5678;52.370;9.006;2022-07-29T03:47:06;15.40;99.90
11242;DHT22;5678;52.370;9.006;2022-07-29T03:49:37;15.40;99.90
11242;DHT22;5678;52.370;9.006;2022-07-29T03:52:06;15.40;99.90
11242;DHT22;5678;52.370;9.006;2022-07-29T03:54:35;15.30;99.90
11242;DHT22;5678;52.370;9.006;2022-07-29T03:57:04;15.40;99.90
11242;DHT22;5678;52.370;9.006;2022-07-29T03:59:33;15.40;99.90
11242;DHT22;5678;52.370;9.006;2022-07-29T04:02:02;15.30;99.90
11242;DHT22;5678;52.370;9.006;2022-07-29T04:04:36;15.30;99.90
11242;DHT22;5678;52.370;9.006;2022-07-29T04:07:04;15.30;99.90
11242;DHT22;5678;52.370;9.006;2022-07-29T04:09:32;15.30;99.90
11242;DHT22;5678;52.370;9.006;2022-07-29T04:12:00;15.40;99.90
11242;DHT22;5678;52.370;9.006;2022-07-29T04:14:30;15.40;99.90
11242;DHT22;5678;52.370;9.006;2022-07-29T04:16:59;15.40;99.90
11242;DHT22;5678;52.370;9.006;2022-07-29T04:19:27;15.50;99.90
11242;DHT22;5678;52.370;9.006;2022-07-29T04:21:57;15.40;99.90
11242;DHT22;5678;52.370;9.006;2022-07-29T04:24:25;15.30;99.90
11242;DHT22;5678;52.370;9.006;2022-07-29T04:26:53;15.40;99.90
11242;DHT22;5678;52.370;9.006;2022-07-29T04:29:21;15.30;99.90
11242;DHT22;5678;52.370;9.006;2022-07-29T04:31:49;15.30;99.90
11242;DHT22;5678;52.370;9.006;2022-07-29T04:34:17;15.20;99.90
11242;DHT22;5678;52.370;9.006;2022-07-29T04:36:46;15.20;99.90
11242;DHT22;5678;52.370;9.006;2022-07-29T04:39:15;15.30;99.90
11242;DHT22;5678;52.370;9.006;2022-07-29T04:41:49;15.30;99.90
11242;DHT22;5678;52.370;9.006;2022-07-29T04:44:20;15.30;99.90
11242;DHT22;5678;52.370;9.006;2022-07-29T04:46:55;15.30;99.90
11242;DHT22;5678;52.370;9.006;2022-07-29T04:49:23;15.30;99.90
11242;DHT22;5678;52.370;9.006;2022-07-29T04:51:51;15.40;99.90
11242;DHT22;5678;52.370;9.006;2022-07-29T04:54:20;15.40;99.90
11242;DHT22;5678;52.370;9.006;2022-07-29T04:56:48;15.50;99.90
11242;DHT22;5678;52.370;9.006;2022-07-29T04:59:16;15.50;99.90
11242;DHT22;5678;52.370;9.006;2022-07-29T05:01:44;15.50;99.90
11242;DHT22;5678;52.370;9.006;2022-07-29T05:04:12;15.60;99.90
11242;DHT22;5678;52.370;9.006;2022-07-29T05:06:40;15.60;99.90
11242;DHT22;5678;52.370;9.006;2022-07-29T05:09:08;15.50;99.90
11242;DHT22;5678;52.370;9.006;2022-07-29T05:11:37;15.80;99.90
11242;DHT22;5678;52.370;9.006;2022-07-29T05:14:05;15.60;99.90
11242;DHT22;5678;52.370;9.006;2022-07-29T05:16:33;15.70;99.90
11242;DHT22;5678;52.370;9.006;2022-07-29T05:19:01;15.70;99.90
11242;DHT22;5678;52.370;9.006;2022-07-29T05:21:29;15.70;99.90
11242;DHT22;5678;52.370;9.006;2022-07-29T05:23:57;15.70;99.90
11242;DHT22;5678;52.370;9.006;2022-07-29T05:26:25;15.70;99.90
11242;DHT22;5678;52.370;9.006;2022-07-29T05:28:54;15.70;99.90
11242;DHT22;5678;52.370;9.006;2022-07-29T05:31:22;15.80;99.90
11242;DHT22;5678;52.370;9.006;2022-07-29T05:33:50;15.80;99.90
11242;DHT22;5678;52.370;9.006;2022-07-29T05:36:18;15.80;99.90
11242;DHT22;5678;52.370;9.006;2022-07-29T05:38:46;15.80;99.90
11242;DHT22;5678;52.370;9.006;2022-07-29T05:41:14;15.80;99.90
11242;DHT22;5678;52.370;9.006;2022-07-29T05:43:42;15.90;99.90
11242;DHT22;5678;52.370;9.006;2022-07-29T05:46:11;15.90;99.90
11242;DHT22;5678;52.370;9.006;2022-07-29T05:48:40;16.00;99.90
11242;DHT22;5678;52.370;9.006;2022-07-29T05:51:08;16.00;99.90
11242;DHT22;5678;52.370;9.006;2022-07-29T05:53:36;16.10;99.90
11242;DHT22;5678;52.370;9.006;2022-07-29T05:56:05;16.10;99.90
11242;DHT22;5678;52.370;9.006;2022-07-29T05:58:33;16.20;99.90
11242;DHT22;5678;52.370;9.006;2022-07-29T06:01:01;16.20;99.90
11242;DHT22;5678;52.370;9.006;2022-07-29T06:03:31;16.30;99.90
11242;DHT22;5678;52.370;9.006;2022-07-29T06:05:59;16.40;99.90
11242;DHT22;5678;52.370;9.006;2022-07-29T06:08:27;16.40;99.90
11242;DHT22;5678;52.370;9.006;2022-07-29T06:10:55;16.50;99.90
11242;DHT22;5678;52.370;9.006;2022-07-29T06:13:22;16.70;99.90
11242;DHT22;5678;52.370;9.006;2022-07-29T06:15:50;16.60;99.90
11242;DHT22;5678;52.370;9.006;2022-07-29T06:18:18;16.70;99.90
11242;DHT22;5678;52.370;9.006;2022-07-29T06:20:48;16.70;99.90
11242;DHT22;5678;52.370;9.006;2022-07-29T06:23:17;16.80;99.90
11242;DHT22;5678;52.370;9.006;2022-07-29T06:25:45;16.90;99.90
11242;DHT22;5678;52.370;9.006;2022-07-29T06:28:13;16.90;99.90
11242;DHT22;5678;52.370;9.006;2022-07-29T06:30:41;16.90;99.90
11242;DHT22;5678;52.370;9.006;2022-07-29T06:33:09;16.90;99.90
11242;DHT22;5678;52.370;9.006;2022-07-29T06:35:36;17.10;99.90
11242;DHT22;5678;52.370;9.006;2022-07-29T06:38:09;17.30;99.90
11242;DHT22;5678;52.370;9.006;2022-07-29T06:40:58;17.30;99.90
11242;DHT22;5678;52.370;9.006;2022-07-29T06:43:35;17.40;99.90
11242;DHT22;5678;52.370;9.006;2022-07-29T06:46:18;17.40;99.90
11242;DHT22;5678;52.370;9.006;2022-07-29T06:48:46;17.50;99.90
11242;DHT22;5678;52.370;9.006;2022-07-29T06:51:15;17.50;99.90
11242;DHT22;5678;52.370;9.006;2022-07-29T06:53:51;17.60;99.90
11242;DHT22;5678;52.370;9.006;2022-07-29T06:56:39;17.80;99.90
11242;DHT22;5678;52.370;9.006;2022-07-29T06:59:09;17.70;99.90
11242;DHT22;5678;52.370;9.006;2022-07-29T07:01:39;17.90;99.90
11242;DHT22;5678;52.370;9.006;2022-07-29T07:04:09;17.90;99.90
11242;DHT22;5678;52.370;9.006;2022-07-29T07:06:37;18.10;99.90
11242;DHT22;5678;52.370;9.006;2022-07-29T07:09:07;18.10;99.90
11242;DHT22;5678;52.370;9.006;2022-07-29T07:11:35;18.30;99.90
11242;DHT22;5678;52.370;9.006;2022-07-29T07:14:02;18.40;99.90
11242;DHT22;5678;52.370;9.006;2022-07-29T07:16:31;18.60;99.90
11242;DHT22;5678;52.370;9.006;2022-07-29T07:18:59;18.80;99.90
11242;DHT22;5678;52.370;9.006;2022-07-29T07:21:27;19.10;99.90
11242;DHT22;5678;52.370;9.006;2022-07-29T07:23:56;19.30;99.90
11242;DHT22;5678;52.370;9.006;2022-07-29T07:26:26;19.60;99.90
11242;DHT22;5678;52.370;9.006;2022-07-29T07:28:54;19.80;99.90
11242;DHT22;5678;52.370;9.006;2022-07-29T07:31:22;20.00;99.90
11242;DHT22;5678;52.370;9.006;2022-07-29T07:33:50;20.20;99.90
11242;DHT22;5678;52.370;9.006;2022-07-29T07:36:18;20.00;99.90
11242;DHT22;5678;52.370;9.006;2022-07-29T07:38:46;20.00;99.90
11242;DHT22;5678;52.370;9.006;2022-07-29T07:41:14;20.20;99.90
11242;DHT22;5678;52.370;9.006;2022-07-29T07:43:44;20.20;99.90
11242;DHT22;5678;52.370;9.006;2022-07-29T07:46:12;20.30;99.90
11242;DHT22;5678;52.370;9.006;2022-07-29T07:48:40;20.10;99.90
11242;DHT22;5678;52.370;9.006;2022-07-29T07:51:08;20.20;99.90
11242;DHT22;5678;52.370;9.006;2022-07-29T07:53:36;20.30;99.90
11242;DHT22;5678;52.370;9.006;2022-07-29T07:56:04;20.30;99.90
11242;DHT22;5678;52.370;9.006;2022-07-29T07:58:37;20.30;99.90
11242;DHT22;5678;52.370;9.006;2022-07-29T08:01:07;20.40;99.90
11242;DHT22;5678;52.370;9.006;2022-07-29T08:03:35;20.60;99.90
11242;DHT22;5678;52.370;9.006;2022-07-29T08:06:04;20.50;99.90
11242;DHT22;5678;52.370;9.006;2022-07-29T08:08:32;20.60;99.90
11242;DHT22;5678;52.370;9.006;2022-07-29T08:11:00;20.60;99.90
11242;DHT22;5678;52.370;9.006;2022-07-29T08:13:35;20.70;99.90
11242;DHT22;5678;52.370;9.006;2022-07-29T08:16:04;20.90;99.90
11242;DHT22;5678;52.370;9.006;2022-07-29T08:18:42;21.00;99.90
11242;DHT22;5678;52.370;9.006;2022-07-29T08:21:10;21.10;99.90
11242;DHT22;5678;52.370;9.006;2022-07-29T08:23:41;21.20;99.90
11242;DHT22;5678;52.370;9.006;2022-07-29T08:26:24;21.40;99.90
11242;DHT22;5678;52.370;9.006;2022-07-29T08:28:52;21.70;99.90
11242;DHT22;5678;52.370;9.006;2022-07-29T08:31:20;21.90;99.90
11242;DHT22;5678;52.370;9.006;2022-07-29T08:33:49;22.10;99.90
11242;DHT22;5678;52.370;9.006;2022-07-29T08:36:17;22.10;99.90
11242;DHT22;5678;52.370;9.006;2022-07-29T08:38:47;22.30;99.90
11242;DHT22;5678;52.370;9.006;2022-07-29T08:41:16;22.50;99.90
11242;DHT22;5678;52.370;9.006;2022-07-29T08:43:45;22.70;99.90
11242;DHT22;5678;52.370;9.006;2022-07-29T08:46:13;23.10;99.90
11242;DHT22;5678;52.370;9.006;2022-07-29T08:48:41;23.60;99.90
11242;DHT22;5678;52.370;9.006;2022-07-29T08:51:13;23.80;99.90
11242;DHT22;5678;52.370;9.006;2022-07-29T08:53:42;23.60;99.90
11242;DHT22;5678;52.370;9.006;2022-07-29T08:56:12;23.40;99.90
11242;DHT22;5678;52.370;9.006;2022-07-29T08:58:41;23.30;99.90
11242;DHT22;5678;52.370;9.006;2022-07-29T09:01:21;23.30;99.90
11242;DHT22;5678;52.370;9.006;2022-07-29T09:04:05;23.30;99.90
11242;DHT22;5678;52.370;9.006;2022-07-29T09:06:42;23.40;99.90
11242;DHT22;5678;52.370;9.006;2022-07-29T09:09:10;23.40;99.90
11242;DHT22;5678;52.370;9.006;2022-07-29T09:11:38;23.40;99.90
11242;DHT22;5678;52.370;9.006;2022-07-29T09:14:06;23.40;99.90
11242;DHT22;5678;52.370;9.006;2022-07-29T09:16:45;23.30;99.90
11242;DHT22;5678;52.370;9.006;2022-07-29T09:19:29;23.30;99.90
11242;DHT22;5678;52.370;9.006;2022-07-29T09:21:59;23.20;99.90
11242;DHT22;5678;52.370;9.006;2022-07-29T09:24:47;23.10;99.90
11242;DHT22;5678;52.370;9.006;2022-07-29T09:27:20;23.40;99.90
11242;DHT22;5678;52.370;9.006;2022-07-29T09:29:59;23.60;99.90
11242;DHT22;5678;52.370;9.006;2022-07-29T09:32:27;23.50;99.90
11242;DHT22;5678;52.370;9.006;2022-07-29T09:35:15;23.60;99.90
11242;DHT22;5678;52.370;9.006;2022-07-29T09:37:46;23.60;99.90
11242;DHT22;5678;52.370;9.006;2022-07-29T09:40:15;23.70;99.90
11242;DHT22;5678;52.370;9.006;2022-07-29T09:42:44;23.80;99.90
11242;DHT22;5678;52.370;9.006;2022-07-29T09:45:12;24.00;99.90
11242;DHT22;5678;52.370;9.006;2022-07-29T09:47:42;24.10;99.90
11242;DHT22;5678;52.370;9.006;2022-07-29T09:50:13;24.50;99.90
11242;DHT22;5678;52.370;9.006;2022-07-29T09:52:47;24.90;99.90
11242;DHT22;5678;52.370;9.006;2022-07-29T09:55:15;25.40;99.90
11242;DHT22;5678;52.370;9.006;2022-07-29T09:57:46;25.70;99.90
11242;DHT22;5678;52.370;9.006;2022-07-29T10:00:16;26.00;99.90
11242;DHT22;5678;52.370;9.006;2022-07-29T10:02:46;26.50;99.90
11242;DHT22;5678;52.370;9.006;2022-07-29T10:05:20;26.70;99.90
11242;DHT22;5678;52.370;9.006;2022-07-29T10:07:50;26.70;99.90
11242;DHT22;5678;52.370;9.006;2022-07-29T10:10:25;26.50;32.10
11242;DHT22;5678;52.370;9.006;2022-07-29T10:12:54;26.60;27.80
11242;DHT22;5678;52.370;9.006;2022-07-29T10:15:26;26.90;28.40
11242;DHT22;5678;52.370;9.006;2022-07-29T10:17:56;27.20;27.40
11242;DHT22;5678;52.370;9.006;2022-07-29T10:20:25;27.30;23.60
11242;DHT22;5678;52.370;9.006;2022-07-29T10:22:56;27.50;22.80
11242;DHT22;5678;52.370;9.006;2022-07-29T10:25:25;27.90;25.20
11242;DHT22;5678;52.370;9.006;2022-07-29T10:27:53;28.20;16.00
11242;DHT22;5678;52.370;9.006;2022-07-29T10:30:23;28.50;12.10
11242;DHT22;5678;52.370;9.006;2022-07-29T10:33:02;28.60;4.20
11242;DHT22;5678;52.370;9.006;2022-07-29T10:35:53;28.50;1.00
11242;DHT22;5678;52.370;9.006;2022-07-29T10:38:40;28.20;1.00
11242;DHT22;5678;52.370;9.006;2022-07-29T10:41:20;28.10;1.00
11242;DHT22;5678;52.370;9.006;2022-07-29T10:44:04;27.90;1.00
11242;DHT22;5678;52.370;9.006;2022-07-29T10:46:35;27.80;1.00
11242;DHT22;5678;52.370;9.006;2022-07-29T10:49:08;27.50;1.00
11242;DHT22;5678;52.370;9.006;2022-07-29T10:51:58;27.50;1.00
11242;DHT22;5678;52.370;9.006;2022-07-29T10:54:42;27.50;1.00
11242;DHT22;5678;52.370;9.006;2022-07-29T10:57:17;27.90;1.00
11242;DHT22;5678;52.370;9.006;2022-07-29T10:59:47;28.40;15.50
11242;DHT22;5678;52.370;9.006;2022-07-29T11:02:43;28.40;1.00
11242;DHT22;5678;52.370;9.006;2022-07-29T11:05:13;28.20;1.00
11242;DHT22;5678;52.370;9.006;2022-07-29T11:10:48;28.10;1.00
11242;DHT22;5678;52.370;9.006;2022-07-29T11:13:44;28.00;1.00
11242;DHT22;5678;52.370;9.006;2022-07-29T11:16:14;27.90;1.00
11242;DHT22;5678;52.370;9.006;2022-07-29T11:19:20;27.60;1.00
11242;DHT22;5678;52.370;9.006;2022-07-29T11:21:56;27.60;1.00
11242;DHT22;5678;52.370;9.006;2022-07-29T11:24:26;27.40;1.00
11242;DHT22;5678;52.370;9.006;2022-07-29T11:27:14;27.30;1.00
11242;DHT22;5678;52.370;9.006;2022-07-29T11:29:53;27.40;1.00
11242;DHT22;5678;52.370;9.006;2022-07-29T11:32:23;27.50;1.00
11242;DHT22;5678;52.370;9.006;2022-07-29T11:35:12;27.50;1.00
11242;DHT22;5678;52.370;9.006;2022-07-29T11:37:44;27.60;1.00
11242;DHT22;5678;52.370;9.006;2022-07-29T11:40:23;27.50;1.00
11242;DHT22;5678;52.370;9.006;2022-07-29T11:42:52;27.40;1.00
11242;DHT22;5678;52.370;9.006;2022-07-29T11:45:25;27.20;1.00
11242;DHT22;5678;52.370;9.006;2022-07-29T11:48:16;27.00;1.00
11242;DHT22;5678;52.370;9.006;2022-07-29T11:50:58;27.00;1.00
11242;DHT22;5678;52.370;9.006;2022-07-29T11:53:27;27.10;1.00
11242;DHT22;5678;52.370;9.006;2022-07-29T11:55:59;27.10;1.00
11242;DHT22;5678;52.370;9.006;2022-07-29T11:58:30;27.30;1.00
11242;DHT22;5678;52.370;9.006;2022-07-29T12:00:59;27.30;1.00
11242;DHT22;5678;52.370;9.006;2022-07-29T12:03:31;26.90;1.00
11242;DHT22;5678;52.370;9.006;2022-07-29T12:06:03;27.10;1.00
11242;DHT22;5678;52.370;9.006;2022-07-29T12:08:40;27.40;1.00
11242;DHT22;5678;52.370;9.006;2022-07-29T12:11:15;27.60;2.30
11242;DHT22;5678;52.370;9.006;2022-07-29T12:13:48;27.60;1.00
11242;DHT22;5678;52.370;9.006;2022-07-29T12:16:17;27.50;1.00
11242;DHT22;5678;52.370;9.006;2022-07-29T12:18:56;27.40;1.00
11242;DHT22;5678;52.370;9.006;2022-07-29T12:21:24;27.50;1.00
11242;DHT22;5678;52.370;9.006;2022-07-29T12:23:55;27.70;1.00
11242;DHT22;5678;52.370;9.006;2022-07-29T12:26:34;28.00;4.50
11242;DHT22;5678;52.370;9.006;2022-07-29T12:29:04;28.10;1.00
11242;DHT22;5678;52.370;9.006;2022-07-29T12:31:37;28.40;1.00
11242;DHT22;5678;52.370;9.006;2022-07-29T12:34:10;28.50;1.00
11242;DHT22;5678;52.370;9.006;2022-07-29T12:36:39;28.70;1.00
11242;DHT22;5678;52.370;9.006;2022-07-29T12:39:08;28.90;1.00
11242;DHT22;5678;52.370;9.006;2022-07-29T12:41:37;29.00;1.00
11242;DHT22;5678;52.370;9.006;2022-07-29T12:44:06;29.10;1.00
11242;DHT22;5678;52.370;9.006;2022-07-29T12:46:34;29.40;1.00
11242;DHT22;5678;52.370;9.006;2022-07-29T12:49:05;29.20;1.00
11242;DHT22;5678;52.370;9.006;2022-07-29T12:51:34;28.70;1.00
11242;DHT22;5678;52.370;9.006;2022-07-29T12:54:06;28.30;1.00
11242;DHT22;5678;52.370;9.006;2022-07-29T12:56:34;28.00;1.00
11242;DHT22;5678;52.370;9.006;2022-07-29T12:59:14;28.00;1.00
11242;DHT22;5678;52.370;9.006;2022-07-29T13:01:42;27.90;1.00
11242;DHT22;5678;52.370;9.006;2022-07-29T13:04:10;28.00;1.00
11242;DHT22;5678;52.370;9.006;2022-07-29T13:06:39;28.00;1.00
11242;DHT22;5678;52.370;9.006;2022-07-29T13:09:12;27.90;1.00
11242;DHT22;5678;52.370;9.006;2022-07-29T13:11:43;27.90;1.00
11242;DHT22;5678;52.370;9.006;2022-07-29T13:14:31;28.20;1.00
11242;DHT22;5678;52.370;9.006;2022-07-29T13:17:01;28.40;1.00
11242;DHT22;5678;52.370;9.006;2022-07-29T13:19:35;28.40;1.00
11242;DHT22;5678;52.370;9.006;2022-07-29T13:22:04;28.70;1.00
11242;DHT22;5678;52.370;9.006;2022-07-29T13:24:32;29.10;1.00
11242;DHT22;5678;52.370;9.006;2022-07-29T13:27:00;29.00;1.00
11242;DHT22;5678;52.370;9.006;2022-07-29T13:29:32;29.20;1.00
11242;DHT22;5678;52.370;9.006;2022-07-29T13:32:00;29.30;1.00
11242;DHT22;5678;52.370;9.006;2022-07-29T13:34:28;28.90;1.00
11242;DHT22;5678;52.370;9.006;2022-07-29T13:36:56;28.80;1.00
11242;DHT22;5678;52.370;9.006;2022-07-29T13:39:24;28.40;1.00
11242;DHT22;5678;52.370;9.006;2022-07-29T13:41:52;28.10;1.00
11242;DHT22;5678;52.370;9.006;2022-07-29T13:44:22;28.00;1.00
11242;DHT22;5678;52.370;9.006;2022-07-29T13:46:51;28.10;1.00
11242;DHT22;5678;52.370;9.006;2022-07-29T13:49:19;28.00;1.00
11242;DHT22;5678;52.370;9.006;2022-07-29T13:51:47;27.90;1.00
11242;DHT22;5678;52.370;9.006;2022-07-29T13:54:16;28.10;1.00
11242;DHT22;5678;52.370;9.006;2022-07-29T13:56:44;28.30;1.00
11242;DHT22;5678;52.370;9.006;2022-07-29T13:59:12;28.40;1.00
11242;DHT22;5678;52.370;9.006;2022-07-29T14:01:40;28.60;1.00
11242;DHT22;5678;52.370;9.006;2022-07-29T14:04:12;28.60;1.00
11242;DHT22;5678;52.370;9.006;2022-07-29T14:06:40;28.60;1.00
11242;DHT22;5678;52.370;9.006;2022-07-29T14:09:09;28.30;1.00
11242;DHT22;5678;52.370;9.006;2022-07-29T14:11:37;28.30;1.00
11242;DHT22;5678;52.370;9.006;2022-07-29T14:14:05;28.30;1.00
11242;DHT22;5678;52.370;9.006;2022-07-29T14:16:33;28.20;1.00
11242;DHT22;5678;52.370;9.006;2022-07-29T14:19:08;28.00;1.00
11242;DHT22;5678;52.370;9.006;2022-07-29T14:21:39;27.90;1.00
11242;DHT22;5678;52.370;9.006;2022-07-29T14:24:07;27.60;1.00
11242;DHT22;5678;52.370;9.006;2022-07-29T14:26:47;27.40;1.00
11242;DHT22;5678;52.370;9.006;2022-07-29T14:29:15;27.30;1.00
11242;DHT22;5678;52.370;9.006;2022-07-29T14:31:43;27.30;1.00
11242;DHT22;5678;52.370;9.006;2022-07-29T14:34:11;27.40;1.00
11242;DHT22;5678;52.370;9.006;2022-07-29T14:36:40;27.30;1.00
11242;DHT22;5678;52.370;9.006;2022-07-29T14:39:08;27.20;1.00
11242;DHT22;5678;52.370;9.006;2022-07-29T14:41:36;27.10;1.00
11242;DHT22;5678;52.370;9.006;2022-07-29T14:44:04;27.00;1.00
11242;DHT22;5678;52.370;9.006;2022-07-29T14:46:32;26.80;1.00
11242;DHT22;5678;52.370;9.006;2022-07-29T14:49:00;26.80;1.00
11242;DHT22;5678;52.370;9.006;2022-07-29T14:51:28;26.70;1.00
11242;DHT22;5678;52.370;9.006;2022-07-29T14:53:59;26.50;1.00
11242;DHT22;5678;52.370;9.006;2022-07-29T14:56:27;26.40;1.00
11242;DHT22;5678;52.370;9.006;2022-07-29T14:59:12;26.50;1.00
11242;DHT22;5678;52.370;9.006;2022-07-29T15:01:40;26.40;1.00
11242;DHT22;5678;52.370;9.006;2022-07-29T15:04:08;26.50;1.00
11242;DHT22;5678;52.370;9.006;2022-07-29T15:06:36;26.50;1.00
11242;DHT22;5678;52.370;9.006;2022-07-29T15:09:06;26.60;1.00
11242;DHT22;5678;52.370;9.006;2022-07-29T15:11:33;26.60;1.00
11242;DHT22;5678;52.370;9.006;2022-07-29T15:14:04;26.70;1.00
11242;DHT22;5678;52.370;9.006;2022-07-29T15:16:32;26.70;1.00
11242;DHT22;5678;52.370;9.006;2022-07-29T15:19:02;26.80;1.00
11242;DHT22;5678;52.370;9.006;2022-07-29T15:21:30;26.90;1.00
11242;DHT22;5678;52.370;9.006;2022-07-29T15:23:58;26.90;1.00
11242;DHT22;5678;52.370;9.006;2022-07-29T15:26:28;27.00;1.00
11242;DHT22;5678;52.370;9.006;2022-07-29T15:28:56;26.90;1.00
11242;DHT22;5678;52.370;9.006;2022-07-29T15:31:25;26.80;1.00
11242;DHT22;5678;52.370;9.006;2022-07-29T15:33:53;26.80;1.00
11242;DHT22;5678;52.370;9.006;2022-07-29T15:36:26;26.90;1.00
11242;DHT22;5678;52.370;9.006;2022-07-29T15:39:13;26.80;1.00
11242;DHT22;5678;52.370;9.006;2022-07-29T15:41:43;26.80;1.00
11242;DHT22;5678;52.370;9.006;2022-07-29T15:44:11;26.80;1.00
11242;DHT22;5678;52.370;9.006;2022-07-29T15:46:39;26.60;1.00
11242;DHT22;5678;52.370;9.006;2022-07-29T15:49:25;26.50;1.00
11242;DHT22;5678;52.370;9.006;2022-07-29T15:52:16;26.40;1.00
11242;DHT22;5678;52.370;9.006;2022-07-29T15:54:53;26.10;2.80
11242;DHT22;5678;52.370;9.006;2022-07-29T15:57:23;26.00;6.40
11242;DHT22;5678;52.370;9.006;2022-07-29T15:59:51;25.80;12.60
11242;DHT22;5678;52.370;9.006;2022-07-29T16:02:19;25.60;27.00
11242;DHT22;5678;52.370;9.006;2022-07-29T16:04:47;25.40;66.00
11242;DHT22;5678;52.370;9.006;2022-07-29T16:07:15;25.30;63.60
11242;DHT22;5678;52.370;9.006;2022-07-29T16:09:43;25.20;77.90
11242;DHT22;5678;52.370;9.006;2022-07-29T16:12:18;25.10;94.80
11242;DHT22;5678;52.370;9.006;2022-07-29T16:14:47;25.10;99.90
11242;DHT22;5678;52.370;9.006;2022-07-29T16:17:17;25.00;99.90
11242;DHT22;5678;52.370;9.006;2022-07-29T16:19:45;24.90;99.90
11242;DHT22;5678;52.370;9.006;2022-07-29T16:22:13;24.90;99.90